Time;durP1;ratioP1;P1;durP2;ratioP2;P2;SDS_P1;SDS_P2;PMS_P1;PMS_P2;Temp;Humidity;BMP_temperature;BMP_pressure;BME280_temperature;BME280_humidity;BME280_pressure;Samples;Min_cycle;Max_cycle;Signal;HPM_P1;HPM_P2
2021/11/17 02:26:08;;;;;;;0.00;0.00;;;;;;;8.60;70.55;101556.16;7262632;19;2004204;-62
2021/11/17 02:28:46;;;;;;;0.10;0.10;;;;;;;8.60;70.26;101557.91;7365132;19;20022;-63
2021/11/17 02:31:17;;;;;;;0.00;0.00;;;;;;;8.57;70.83;101558.78;7365269;19;20352;-62
2021/11/17 02:34:20;;;;;;;0.10;0.10;;;;;;;8.58;70.47;101550.97;7364673;19;20028;-62
2021/11/17 02:36:51;;;;;;;0.00;0.00;;;;;;;8.58;70.99;101561.38;7258250;19;2004386;-63
2021/11/17 02:39:41;;;;;;;0.05;0.05;;;;;;;8.60;71.21;101552.69;7362614;19;20470;-63
2021/11/17 02:42:25;;;;;;;0.08;0.08;;;;;;;8.63;70.76;101557.91;7361956;19;20010;-63
2021/11/17 02:45:27;;;;;;;0.00;0.00;;;;;;;8.63;70.33;101563.97;7368965;19;20062;-63
2021/11/17 02:48:44;;;;;;;0.00;0.00;;;;;;;8.67;70.54;101562.22;7265315;19;2004347;-63
2021/11/17 02:51:38;;;;;;;0.08;0.08;;;;;;;8.67;71.04;101565.72;7256896;19;2004515;-62
2021/11/17 02:54:15;;;;;;;0.10;0.10;;;;;;;8.71;70.72;101571.75;7264658;19;2004419;-61
2021/11/17 02:57:09;;;;;;;0.10;0.10;;;;;;;8.72;70.87;101569.19;7364942;19;20003;-63
2021/11/17 03:00:03;;;;;;;0.00;0.00;;;;;;;8.78;70.31;101566.56;7258346;19;2004600;-62
2021/11/17 03:02:31;;;;;;;0.10;0.10;;;;;;;8.80;70.56;101571.75;7265444;19;2004610;-61
2021/11/17 03:05:29;;;;;;;0.00;0.00;;;;;;;8.84;70.12;101573.50;7369101;19;20022;-63
2021/11/17 03:08:00;;;;;;;0.00;0.00;;;;;;;8.84;70.71;101573.50;7265760;19;2004300;-62
2021/11/17 03:10:38;;;;;;;0.00;0.00;;;;;;;8.88;70.72;101575.22;7368069;19;20671;-63
2021/11/17 03:13:06;;;;;;;0.00;0.00;;;;;;;8.91;70.55;101585.63;7367485;19;20007;-63
2021/11/17 03:15:37;;;;;;;0.00;0.00;;;;;;;8.94;70.78;101589.97;7367829;19;20010;-62
2021/11/17 03:18:30;;;;;;;0.00;0.00;;;;;;;8.98;70.41;101582.16;7360096;19;20010;-63
2021/11/17 03:21:24;;;;;;;0.00;0.00;;;;;;;9.01;70.45;101587.34;7266088;19;2004567;-63
2021/11/17 03:24:01;;;;;;;0.10;0.10;;;;;;;9.04;70.17;101594.31;7261049;19;2004403;-63
2021/11/17 03:26:32;;;;;;;0.00;0.00;;;;;;;9.06;70.65;101584.72;7369429;19;20580;-63
2021/11/17 03:29:22;;;;;;;0.00;0.00;;;;;;;9.08;70.36;101589.09;7366037;19;20384;-63
2021/11/17 03:31:56;;;;;;;0.00;0.00;;;;;;;9.10;70.23;101587.34;7368838;19;20002;-63
2021/11/17 03:34:28;;;;;;;0.00;0.00;;;;;;;9.10;70.71;101582.13;7367803;19;20007;-63
2021/11/17 03:37:15;;;;;;;0.00;0.00;;;;;;;9.13;70.23;101569.97;7366891;19;20553;-63
2021/11/17 03:39:46;;;;;;;0.10;0.10;;;;;;;9.12;70.27;101586.44;7367811;19;20014;-63
2021/11/17 03:42:37;;;;;;;0.00;0.00;;;;;;;9.15;69.92;101578.63;7369443;19;20014;-63
2021/11/17 03:45:27;;;;;;;0.00;0.00;;;;;;;9.15;70.12;101583.84;7362227;19;20007;-63
2021/11/17 03:48:34;;;;;;;0.05;0.05;;;;;;;9.17;70.01;101582.09;7369417;19;20017;-63
2021/11/17 03:51:09;;;;;;;0.10;0.10;;;;;;;9.17;70.03;101587.31;7262575;19;2004239;-63
2021/11/17 03:53:37;;;;;;;0.10;0.10;;;;;;;9.16;70.38;101589.06;7366619;19;20014;-63
2021/11/17 03:56:02;;;;;;;0.10;0.10;;;;;;;9.15;70.10;101589.06;7366622;19;20060;-62
2021/11/17 03:58:48;;;;;;;0.10;0.10;;;;;;;9.17;70.01;101584.69;7359106;19;20018;-62
2021/11/17 04:01:29;;;;;;;0.00;0.00;;;;;;;9.17;70.03;101587.31;7366625;19;20039;-62
2021/11/17 04:04:18;;;;;;;0.10;0.10;;;;;;;9.19;69.94;101593.41;7365304;19;20105;-63
2021/11/17 04:06:56;;;;;;;0.00;0.00;;;;;;;9.18;69.65;101599.50;7362428;19;20006;-63
2021/11/17 04:09:28;;;;;;;0.10;0.10;;;;;;;9.17;70.20;101603.81;7366033;19;20619;-63
2021/11/17 04:12:15;;;;;;;0.10;0.10;;;;;;;9.18;70.01;101604.69;7365518;19;20019;-63
2021/11/17 04:14:49;;;;;;;;;;;;;;;9.19;69.63;101614.25;7368256;19;20024;-63
2021/11/17 04:17:20;;;;;;;0.00;0.00;;;;;;;9.17;69.90;101608.16;7362965;19;19930;-62
2021/11/17 04:19:46;;;;;;;0.00;0.00;;;;;;;9.13;69.98;101611.66;7366011;19;20023;-63
2021/11/17 04:22:37;;;;;;;0.00;0.00;;;;;;;9.15;69.55;101599.50;7365033;19;21412;-63
2021/11/17 04:25:21;;;;;;;0.00;0.00;;;;;;;9.14;69.89;101616.00;7266495;19;2005002;-63
2021/11/17 04:27:49;;;;;;;0.00;0.00;;;;;;;8.86;69.71;101576.97;7366878;19;20078;-63
2021/11/17 04:30:20;;;;;;;0.10;0.10;;;;;;;9.09;69.74;101627.28;7364598;19;20405;-63
2021/11/17 04:33:04;;;;;;;0.10;0.10;;;;;;;9.08;70.13;101630.78;7365270;19;20018;-63
2021/11/17 04:35:42;;;;;;;0.00;0.00;;;;;;;9.09;69.65;101637.72;7368402;19;20006;-63
2021/11/17 04:38:21;;;;;;;0.05;0.05;;;;;;;9.09;69.90;101644.66;7366194;19;20017;-63
2021/11/17 04:41:06;;;;;;;0.03;0.03;;;;;;;9.05;69.75;101646.41;7364927;19;20006;-63
2021/11/17 04:43:34;;;;;;;0.00;0.00;;;;;;;9.04;69.65;101646.41;7364405;19;20032;-63
2021/11/17 04:46:15;;;;;;;0.00;0.00;;;;;;;9.01;69.80;101644.66;7359405;19;20006;-63
2021/11/17 04:48:58;;;;;;;0.10;0.10;;;;;;;8.99;69.30;101646.41;7368293;19;20374;-63
2021/11/17 04:52:01;;;;;;;0.10;0.10;;;;;;;8.96;69.31;101645.53;7369216;19;21265;-63
2021/11/17 04:54:44;;;;;;;0.10;0.10;;;;;;;8.90;69.92;101645.56;7266799;19;2004433;-63
2021/11/17 04:57:28;;;;;;;0.00;0.00;;;;;;;8.88;69.30;101648.16;7365215;19;20645;-63
2021/11/17 05:00:09;;;;;;;0.10;0.10;;;;;;;8.84;69.30;101646.44;7367187;19;20017;-63
2021/11/17 05:02:37;;;;;;;0.00;0.00;;;;;;;8.80;69.71;101649.88;7363416;19;20472;-63
2021/11/17 05:05:21;;;;;;;0.10;0.10;;;;;;;8.77;69.52;101649.91;7365874;19;20022;-63
2021/11/17 05:07:57;;;;;;;0.00;0.00;;;;;;;8.72;69.64;101649.03;7362578;19;20013;-62
2021/11/17 05:11:01;;;;;;;0.10;0.10;;;;;;;8.71;69.20;101657.69;7366863;19;20936;-63
2021/11/17 05:13:44;;;;;;;0.00;0.00;;;;;;;8.68;69.68;101657.72;7262314;19;2004254;-63
2021/11/17 05:16:27;;;;;;;0.00;0.00;;;;;;;8.63;69.43;101673.34;7372384;19;21142;-62
2021/11/17 05:19:09;;;;;;;0.00;0.00;;;;;;;8.61;69.65;101679.38;7371984;19;20026;-63
2021/11/17 05:22:05;;;;;;;0.00;0.00;;;;;;;8.57;69.66;101674.19;7373105;19;20011;-63
2021/11/17 05:24:46;;;;;;;0.08;0.08;;;;;;;8.55;69.91;101675.91;7268053;19;2004538;-62
2021/11/17 05:27:48;;;;;;;0.00;0.00;;;;;;;8.57;69.71;101663.78;7373654;19;20013;-63
2021/11/17 05:30:29;;;;;;;0.00;0.00;;;;;;;8.57;70.20;101663.78;7270256;19;2004298;-62
2021/11/17 05:32:54;;;;;;;0.00;0.00;;;;;;;8.58;70.04;101668.13;7370119;19;20017;-63
2021/11/17 05:35:22;;;;;;;0.00;0.00;;;;;;;8.61;69.78;101655.97;7372386;19;20006;-63
2021/11/17 05:38:06;;;;;;;0.08;0.08;;;;;;;8.65;69.89;101655.97;7371860;19;20011;-62
2021/11/17 05:40:41;;;;;;;0.00;0.00;;;;;;;8.67;70.16;101659.47;7372813;19;20462;-63
2021/11/17 05:43:35;;;;;;;0.00;0.00;;;;;;;8.71;69.63;101660.31;7369799;19;20042;-61
2021/11/17 05:46:16;;;;;;;0.10;0.10;;;;;;;8.72;69.93;101662.06;7270311;19;2004468;-62
2021/11/17 05:49:06;;;;;;;0.00;0.00;;;;;;;8.74;70.07;101660.31;7371041;19;20030;-63
2021/11/17 05:51:47;;;;;;;0.10;0.10;;;;;;;8.81;70.00;101651.63;7373182;19;20018;-63
2021/11/17 05:54:31;;;;;;;0.10;0.10;;;;;;;8.82;70.03;101658.59;7372315;19;20010;-63
2021/11/17 05:57:34;;;;;;;0.10;0.10;;;;;;;8.91;69.70;101666.38;7371165;19;20358;-63
2021/11/17 06:00:41;;;;;;;0.00;0.00;;;;;;;8.98;69.93;101646.44;7268975;19;2004299;-63
2021/11/17 06:03:13;;;;;;;0.10;0.10;;;;;;;9.02;69.60;101655.94;7270835;19;2004447;-63
2021/11/17 06:05:38;;;;;;;0.00;0.00;;;;;;;9.03;69.55;101663.78;7369094;19;20074;-62
2021/11/17 06:08:03;;;;;;;0.00;0.00;;;;;;;9.05;69.65;101662.03;7371690;19;21249;-63
2021/11/17 06:10:42;;;;;;;0.10;0.10;;;;;;;9.10;69.76;101655.06;7371267;19;20010;-63
2021/11/17 06:13:10;;;;;;;0.10;0.10;;;;;;;9.07;69.70;101652.50;7367402;19;20010;-63
2021/11/17 06:15:37;;;;;;;0.00;0.00;;;;;;;9.13;69.71;101658.56;7370526;19;20078;-62
2021/11/17 06:18:05;;;;;;;0.00;0.00;;;;;;;9.13;69.53;101663.78;7362344;19;20748;-62
2021/11/17 06:20:30;;;;;;;;;;;;;;;9.15;69.09;101672.44;7371871;19;20027;-63
2021/11/17 06:23:01;;;;;;;0.00;0.00;;;;;;;9.12;69.04;101667.22;7365599;19;20039;-63
2021/11/17 06:25:27;;;;;;;0.10;0.10;;;;;;;9.07;69.44;101668.13;7370379;19;20642;-63
2021/11/17 06:27:58;;;;;;;0.00;0.00;;;;;;;9.06;69.12;101663.75;7367632;19;20011;-63
2021/11/17 06:30:24;;;;;;;0.00;0.00;;;;;;;9.01;69.35;101668.09;7367986;19;20038;-63
2021/11/17 06:32:50;;;;;;;0.00;0.00;;;;;;;8.99;69.38;101682.88;7368665;19;20014;-63
2021/11/17 06:35:16;;;;;;;0.00;0.00;;;;;;;8.96;69.69;101676.81;7369183;19;20010;-63
2021/11/17 06:37:43;;;;;;;0.00;0.00;;;;;;;8.93;69.61;101669.88;7368408;19;20011;-63
2021/11/17 06:40:13;;;;;;;0.00;0.00;;;;;;;8.91;69.45;101663.78;7365250;19;20014;-63
2021/11/17 06:42:46;;;;;;;0.00;0.00;;;;;;;8.90;69.65;101674.19;7365629;19;20492;-62
2021/11/17 06:45:32;;;;;;;0.00;0.00;;;;;;;8.86;69.60;101680.28;7366986;19;20022;-62
2021/11/17 06:47:59;;;;;;;0.00;0.00;;;;;;;8.79;69.41;101685.50;7369459;19;20090;-62
2021/11/17 06:50:25;;;;;;;0.00;0.00;;;;;;;8.77;69.99;101686.38;7368493;19;20003;-62
2021/11/17 06:52:51;;;;;;;0.00;0.00;;;;;;;8.77;69.75;101686.38;7367137;19;20006;-62
2021/11/17 06:55:18;;;;;;;0.00;0.00;;;;;;;8.74;70.27;101681.16;7370177;19;20014;-62
2021/11/17 06:57:44;;;;;;;0.10;0.10;;;;;;;8.72;70.24;101693.31;7368340;19;20010;-63
2021/11/17 07:00:13;;;;;;;0.00;0.00;;;;;;;8.72;70.38;101694.19;7369184;19;20350;-62
2021/11/17 07:02:39;;;;;;;0.00;0.00;;;;;;;8.72;70.38;101701.13;7365594;19;20477;-63
2021/11/17 07:05:05;;;;;;;0.00;0.00;;;;;;;8.72;70.52;101698.53;7368096;19;20372;-63
2021/11/17 07:07:31;;;;;;;0.10;0.10;;;;;;;8.74;70.56;101704.59;7370008;19;20014;-61
2021/11/17 07:09:56;;;;;;;0.00;0.00;;;;;;;8.77;70.59;101707.22;7366460;19;20014;-62
2021/11/17 07:12:22;;;;;;;0.08;0.08;;;;;;;8.80;70.44;101710.66;7365104;19;20018;-62
2021/11/17 07:14:47;;;;;;;0.00;0.00;;;;;;;8.78;70.25;101698.53;7367998;19;20010;-62
2021/11/17 07:17:13;;;;;;;0.00;0.00;;;;;;;8.86;70.15;101704.59;7366974;19;20052;-62
2021/11/17 07:19:39;;;;;;;0.00;0.00;;;;;;;8.88;69.99;101715.88;7365714;19;20345;-62
2021/11/17 07:22:07;;;;;;;0.10;0.10;;;;;;;8.91;70.06;101715.00;7365768;19;20010;-62
2021/11/17 07:24:33;;;;;;;;;;;;;;;8.96;69.21;101713.28;7368219;19;20010;-62
2021/11/17 07:27:00;;;;;;;0.03;0.03;;;;;;;8.92;69.78;101717.63;7364022;19;19915;-62
2021/11/17 07:29:26;;;;;;;0.10;0.10;;;;;;;8.91;69.75;101721.06;7365665;19;20006;-62
2021/11/17 07:31:52;;;;;;;0.00;0.00;;;;;;;8.91;69.63;101723.69;7366379;19;20038;-63
2021/11/17 07:34:18;;;;;;;0.00;0.00;;;;;;;8.87;69.35;101721.97;7367077;19;20064;-63
2021/11/17 07:36:45;;;;;;;0.05;0.05;;;;;;;8.87;69.32;101740.19;7362654;19;20576;-62
2021/11/17 07:39:13;;;;;;;0.00;0.00;;;;;;;8.77;69.25;101735.84;7360631;19;20018;-64
2021/11/17 07:41:45;;;;;;;0.03;0.03;;;;;;;8.84;69.31;101742.78;7352911;19;20014;-62
2021/11/17 07:44:14;;;;;;;0.08;0.08;;;;;;;8.82;69.41;101747.16;7360640;19;20010;-62
2021/11/17 07:46:40;;;;;;;0.10;0.10;;;;;;;8.79;69.50;101760.16;7361806;19;20018;-63
2021/11/17 07:49:06;;;;;;;0.00;0.00;;;;;;;8.76;69.48;101767.94;7358765;19;20018;-63
2021/11/17 07:51:31;;;;;;;0.10;0.10;;;;;;;8.73;69.82;101774.03;7365857;19;20022;-62
2021/11/17 07:53:57;;;;;;;0.00;0.00;;;;;;;8.72;69.83;101761.03;7363707;19;20006;-62
2021/11/17 07:56:22;;;;;;;0.00;0.00;;;;;;;8.68;69.98;101754.06;7357607;19;20029;-62
2021/11/17 07:58:48;;;;;;;0.00;0.00;;;;;;;8.68;70.01;101760.13;7364798;19;20473;-63
2021/11/17 08:01:15;;;;;;;0.00;0.00;;;;;;;8.68;70.17;101769.69;7366736;19;20478;-62
2021/11/17 08:03:44;;;;;;;0.10;0.10;;;;;;;8.68;69.96;101772.28;7363303;19;20002;-63
2021/11/17 08:06:14;;;;;;;0.00;0.00;;;;;;;8.69;69.89;101776.63;7362624;19;20010;-62
2021/11/17 08:08:39;;;;;;;0.10;0.10;;;;;;;8.62;70.17;101775.75;7357310;19;20045;-62
2021/11/17 08:11:08;;;;;;;0.10;0.10;;;;;;;8.69;70.32;101787.03;7347511;19;20014;-63
2021/11/17 08:13:34;;;;;;;0.00;0.00;;;;;;;8.66;70.52;101782.69;7361058;19;20006;-62
2021/11/17 08:16:02;;;;;;;0.10;0.10;;;;;;;8.69;70.38;101798.31;7364550;19;20021;-63
2021/11/17 08:18:27;;;;;;;0.00;0.00;;;;;;;8.68;70.11;101795.72;7366756;19;20013;-63
2021/11/17 08:20:53;;;;;;;0.00;0.00;;;;;;;8.68;70.35;101795.72;7359652;19;20054;-62
2021/11/17 08:23:19;;;;;;;0.00;0.00;;;;;;;8.72;70.75;101797.47;7364860;19;20043;-63
2021/11/17 08:25:46;;;;;;;0.00;0.00;;;;;;;8.74;70.77;101795.72;7366708;19;20014;-63
2021/11/17 08:28:12;;;;;;;0.10;0.10;;;;;;;8.64;70.59;101774.00;7360507;19;20006;-63
2021/11/17 08:30:38;;;;;;;0.00;0.00;;;;;;;8.81;70.83;101803.53;7361273;19;20042;-63
2021/11/17 08:33:05;;;;;;;0.00;0.00;;;;;;;8.83;70.48;101803.56;7360709;19;20027;-63
2021/11/17 08:35:31;;;;;;;0.05;0.05;;;;;;;8.89;70.42;101815.75;7364247;19;20081;-64
2021/11/17 08:37:58;;;;;;;0.00;0.00;;;;;;;8.90;70.84;101815.72;7364332;19;20369;-63
2021/11/17 08:40:28;;;;;;;0.00;0.00;;;;;;;8.94;70.71;101827.03;7358596;19;21168;-61
2021/11/17 08:42:54;;;;;;;0.00;0.00;;;;;;;8.97;70.86;101827.91;7365315;19;20018;-63
2021/11/17 08:45:21;;;;;;;0.00;0.00;;;;;;;9.01;70.62;101831.38;7335371;19;20010;-62
2021/11/17 08:47:47;;;;;;;0.10;0.10;;;;;;;9.04;70.65;101832.25;7363115;19;20773;-63
2021/11/17 08:50:17;;;;;;;0.10;0.10;;;;;;;9.07;70.73;101837.50;7357194;19;20714;-63
2021/11/17 08:52:44;;;;;;;0.03;0.03;;;;;;;9.09;70.71;101840.94;7362376;19;20014;-60
2021/11/17 08:55:10;;;;;;;0.10;0.10;;;;;;;9.13;70.68;101838.38;7351191;19;20017;-60
2021/11/17 08:57:36;;;;;;;0.00;0.00;;;;;;;9.15;70.50;101839.22;7358767;19;20759;-60
2021/11/17 09:00:03;;;;;;;0.00;0.00;;;;;;;9.18;70.66;101839.25;7364244;19;20014;-61
2021/11/17 09:02:28;;;;;;;0.10;0.10;;;;;;;9.23;70.73;101842.72;7355297;19;20045;-61
2021/11/17 09:04:54;;;;;;;0.00;0.00;;;;;;;9.28;70.77;101821.00;7362455;19;20006;-60
2021/11/17 09:07:19;;;;;;;0.00;0.00;;;;;;;9.33;70.73;101824.47;7362419;19;20030;-60
2021/11/17 09:09:45;;;;;;;0.00;0.00;;;;;;;9.39;70.82;101818.41;7360702;19;20006;-61
2021/11/17 09:12:11;;;;;;;0.00;0.00;;;;;;;9.46;70.74;101808.81;7363290;19;20420;-61
2021/11/17 09:14:37;;;;;;;0.00;0.00;;;;;;;9.54;70.68;101805.34;7362464;19;20007;-61
2021/11/17 09:17:04;;;;;;;0.08;0.08;;;;;;;9.62;70.75;101815.75;7362329;19;20010;-62
2021/11/17 09:19:29;;;;;;;0.00;0.00;;;;;;;9.58;70.94;101788.84;7364301;19;20030;-62
2021/11/17 09:21:55;;;;;;;0.00;0.00;;;;;;;9.87;70.60;101806.16;7361265;19;20011;-63
2021/11/17 09:24:21;;;;;;;0.00;0.00;;;;;;;10.05;70.74;101813.97;7361746;19;20118;-62
2021/11/17 09:26:49;;;;;;;0.00;0.00;;;;;;;10.28;70.73;101823.47;7362844;19;20021;-61
2021/11/17 09:29:15;;;;;;;0.10;0.10;;;;;;;10.46;70.08;101826.03;7359674;19;20023;-61
2021/11/17 09:31:42;;;;;;;0.10;0.10;;;;;;;10.62;69.77;101824.22;7351464;19;20009;-62
2021/11/17 09:34:08;;;;;;;0.10;0.10;;;;;;;10.73;69.39;101821.53;7362049;19;20022;-61
2021/11/17 09:36:37;;;;;;;0.10;0.10;;;;;;;10.81;69.08;101819.78;7360939;19;20089;-63
2021/11/17 09:39:07;;;;;;;0.00;0.00;;;;;;;10.88;69.00;101824.06;7352118;19;20039;-62
2021/11/17 09:41:44;;;;;;;0.00;0.00;;;;;;;10.91;68.39;101826.69;7351322;19;20034;-62
2021/11/17 09:44:24;;;;;;;0.10;0.10;;;;;;;10.94;68.42;101833.63;7347962;19;20243;-62
2021/11/17 09:46:51;;;;;;;0.00;0.00;;;;;;;10.84;68.55;101822.34;7359065;19;20013;-62
2021/11/17 09:49:19;;;;;;;0.03;0.03;;;;;;;10.92;68.39;101833.63;7357286;19;20010;-62
2021/11/17 09:52:00;;;;;;;0.00;0.00;;;;;;;10.95;68.71;101823.19;7353482;19;20378;-62
2021/11/17 09:54:38;;;;;;;0.10;0.10;;;;;;;10.98;68.65;101830.13;7351660;19;20059;-62
2021/11/17 09:57:16;;;;;;;0.00;0.00;;;;;;;11.10;68.61;101828.31;7360074;19;20081;-63
2021/11/17 10:00:11;;;;;;;0.00;0.00;;;;;;;11.12;68.65;101810.84;7360046;19;20074;-61
2021/11/17 10:02:43;;;;;;;0.00;0.00;;;;;;;11.25;67.68;101831.66;7264562;19;2004269;-62
2021/11/17 10:05:22;;;;;;;0.00;0.00;;;;;;;11.35;67.49;101833.31;7361901;19;20022;-62
2021/11/17 10:13:49;;;;;;;0.05;0.05;;;;;;;11.48;67.63;101811.44;7260292;19;2004623;-61
2021/11/17 10:16:16;;;;;;;0.00;0.00;;;;;;;11.48;67.11;101814.06;7364260;19;20049;-63
2021/11/17 10:18:53;;;;;;;0.10;0.10;;;;;;;11.55;66.93;101814.84;7364667;19;20023;-62
2021/11/17 10:21:31;;;;;;;0.08;0.08;;;;;;;11.47;67.24;101801.84;7357351;19;20840;-63
2021/11/17 10:24:05;;;;;;;0.10;0.10;;;;;;;11.68;67.35;101822.59;7361495;19;20955;-62
2021/11/17 10:26:35;;;;;;;0.00;0.00;;;;;;;11.88;67.23;101811.09;7361692;19;20026;-63
2021/11/17 10:29:21;;;;;;;0.00;0.00;;;;;;;12.13;67.55;101819.56;7358332;19;20014;-63
2021/11/17 10:32:04;;;;;;;0.00;0.00;;;;;;;12.26;66.27;101825.50;7362877;19;20006;-63
2021/11/17 10:34:32;;;;;;;0.00;0.00;;;;;;;12.30;65.70;101821.97;7356558;19;20078;-63
2021/11/17 10:37:04;;;;;;;;;;;;;;;12.40;67.02;101828.84;7363442;19;20049;-62
2021/11/17 10:39:38;;;;;;;0.00;0.00;;;;;;;12.38;65.06;101830.63;7352495;19;19922;-60
2021/11/17 10:42:26;;;;;;;0.00;0.00;;;;;;;12.36;65.14;101837.59;7363854;19;20022;-62
2021/11/17 10:45:23;;;;;;;0.00;0.00;;;;;;;12.31;65.32;101824.56;7365076;19;20671;-63
2021/11/17 10:47:51;;;;;;;0.00;0.00;;;;;;;12.25;65.09;101829.88;7238757;19;2004377;-62
2021/11/17 10:50:33;;;;;;;0.10;0.10;;;;;;;12.27;65.17;101842.97;7362531;19;20010;-62
2021/11/17 10:53:14;;;;;;;0.00;0.00;;;;;;;12.26;64.90;101841.22;7362818;19;20006;-62
2021/11/17 10:55:53;;;;;;;0.00;0.00;;;;;;;12.24;64.88;101853.47;7340161;19;20462;-63
2021/11/17 10:58:25;;;;;;;0.10;0.10;;;;;;;12.22;64.66;101845.66;7364631;19;20673;-62
2021/11/17 11:00:58;;;;;;;0.00;0.00;;;;;;;12.22;64.95;101855.25;7364122;19;20003;-63
2021/11/17 11:03:27;;;;;;;0.00;0.00;;;;;;;12.20;65.40;101853.50;7363806;19;20027;-62
2021/11/17 11:06:02;;;;;;;0.00;0.00;;;;;;;12.25;64.96;101849.97;7364177;19;20355;-62
2021/11/17 11:08:31;;;;;;;0.05;0.05;;;;;;;12.25;64.76;101860.44;7364957;19;20358;-62
2021/11/17 11:11:00;;;;;;;0.00;0.00;;;;;;;12.25;64.89;101866.53;7360410;19;20021;-62
2021/11/17 11:13:35;;;;;;;0.00;0.00;;;;;;;12.25;64.87;101855.19;7363155;19;20909;-63
2021/11/17 11:16:10;;;;;;;0.00;0.00;;;;;;;12.26;65.08;101856.94;7364365;19;20010;-63
2021/11/17 11:18:42;;;;;;;0.00;0.00;;;;;;;12.29;64.56;101859.53;7363607;19;20019;-63
2021/11/17 11:21:10;;;;;;;0.00;0.00;;;;;;;12.26;64.51;101859.56;7357134;19;20016;-63
2021/11/17 11:23:55;;;;;;;0.05;0.05;;;;;;;12.24;64.77;101862.19;7361093;19;20103;-63
2021/11/17 11:26:23;;;;;;;0.00;0.00;;;;;;;12.23;64.73;101868.31;7338199;19;20014;-62
2021/11/17 11:29:00;;;;;;;0.00;0.00;;;;;;;12.26;64.91;101862.16;7364571;19;20109;-62
2021/11/17 11:31:28;;;;;;;0.10;0.10;;;;;;;12.24;64.89;101861.34;7361388;19;20010;-63
2021/11/17 11:33:56;;;;;;;0.00;0.00;;;;;;;12.25;64.89;101861.31;7315203;19;20018;-62
2021/11/17 11:36:21;;;;;;;0.10;0.10;;;;;;;12.26;64.75;101862.16;7359119;19;20046;-63
2021/11/17 11:38:48;;;;;;;0.10;0.10;;;;;;;12.27;64.83;101858.69;7361165;19;20041;-63
2021/11/17 11:41:29;;;;;;;0.10;0.10;;;;;;;12.31;65.18;101853.38;7355776;19;20017;-63
2021/11/17 11:44:25;;;;;;;0.10;0.10;;;;;;;12.34;65.02;101844.63;7337466;19;20021;-62
2021/11/17 11:46:56;;;;;;;0.10;0.10;;;;;;;12.38;64.82;101851.56;7261135;19;2004569;-61
2021/11/17 11:49:34;;;;;;;0.00;0.00;;;;;;;12.41;65.15;101848.91;7362256;19;20032;-62
2021/11/17 11:52:20;;;;;;;0.00;0.00;;;;;;;12.46;64.63;101844.47;7357761;19;20649;-62
2021/11/17 11:54:54;;;;;;;0.00;0.00;;;;;;;12.48;64.70;101827.00;7358924;19;20094;-63
2021/11/17 11:57:35;;;;;;;0.00;0.00;;;;;;;12.53;64.99;101834.81;7338526;19;20158;-62
2021/11/17 12:00:12;;;;;;;0.00;0.00;;;;;;;12.53;64.88;101833.03;7358432;19;20038;-62
2021/11/17 12:02:41;;;;;;;;;;;;;;;12.59;65.12;101830.34;7357703;19;20358;-62
2021/11/17 12:05:12;;;;;;;0.00;0.00;;;;;;;12.59;64.53;101830.34;7364437;19;19921;-63
2021/11/17 12:07:49;;;;;;;0.10;0.10;;;;;;;12.62;64.37;101832.94;7358762;19;20014;-62
2021/11/17 12:10:28;;;;;;;0.00;0.00;;;;;;;12.57;64.64;101821.66;7342475;19;20137;-63
2021/11/17 12:12:54;;;;;;;0.00;0.00;;;;;;;12.68;64.63;101835.47;7358769;19;20048;-61
2021/11/17 12:15:22;;;;;;;0.10;0.10;;;;;;;12.75;64.40;101836.25;7362735;19;20010;-62
2021/11/17 12:18:02;;;;;;;0.00;0.00;;;;;;;12.84;64.60;101835.25;7359465;19;20592;-62
2021/11/17 12:20:33;;;;;;;0.10;0.10;;;;;;;12.95;64.55;101833.34;7358395;19;20018;-63
2021/11/17 12:22:59;;;;;;;0.00;0.00;;;;;;;13.02;63.74;101828.88;7338418;19;20462;-63
2021/11/17 12:25:33;;;;;;;0.00;0.00;;;;;;;13.10;63.89;101834.88;7361559;19;20462;-63
2021/11/17 12:28:14;;;;;;;0.00;0.00;;;;;;;13.05;63.95;101813.97;7363170;19;20006;-63
2021/11/17 12:30:40;;;;;;;0.00;0.00;;;;;;;13.15;63.45;101839.16;7361559;19;20034;-63
2021/11/17 12:33:39;;;;;;;0.00;0.00;;;;;;;13.27;64.52;101847.75;7359054;19;20094;-63
2021/11/17 12:36:10;;;;;;;0.10;0.10;;;;;;;13.33;63.81;101839.78;7257409;19;2004420;-62
2021/11/17 12:38:37;;;;;;;0.00;0.00;;;;;;;13.36;63.36;101835.38;7362822;19;20014;-62
2021/11/17 12:41:25;;;;;;;0.00;0.00;;;;;;;13.49;63.31;101822.94;7360010;19;20002;-63
2021/11/17 12:44:05;;;;;;;0.00;0.00;;;;;;;13.55;63.31;101840.31;7259671;19;2004364;-63
2021/11/17 12:46:36;;;;;;;0.08;0.08;;;;;;;13.61;62.58;101848.09;7363321;19;20022;-63
2021/11/17 12:49:28;;;;;;;0.00;0.00;;;;;;;13.69;63.12;101818.19;7361992;19;20358;-63
2021/11/17 12:52:09;;;;;;;0.10;0.10;;;;;;;13.73;62.51;101819.84;7258906;19;2004376;-62
2021/11/17 12:54:43;;;;;;;0.10;0.10;;;;;;;13.79;62.33;101831.13;7362416;19;20025;-62
2021/11/17 12:57:23;;;;;;;0.08;0.08;;;;;;;13.83;61.85;101814.44;7361622;19;20015;-63
2021/11/17 12:59:53;;;;;;;0.00;0.00;;;;;;;13.88;62.16;101825.72;7361003;19;20014;-63
2021/11/17 13:02:21;;;;;;;0.10;0.10;;;;;;;13.93;61.92;101831.75;7360971;19;20789;-62
2021/11/17 13:04:50;;;;;;;0.00;0.00;;;;;;;13.99;61.84;101834.28;7358826;19;20843;-61
2021/11/17 13:07:41;;;;;;;0.00;0.00;;;;;;;14.12;62.05;101837.53;7360656;19;20010;-63
2021/11/17 13:10:08;;;;;;;0.00;0.00;;;;;;;14.15;61.25;101835.72;7258077;19;2004344;-63
2021/11/17 13:12:38;;;;;;;0.00;0.00;;;;;;;14.21;61.29;101840.00;7339507;19;20030;-62
2021/11/17 13:15:03;;;;;;;0.10;0.10;;;;;;;14.26;61.11;101846.88;7338554;19;20031;-61
2021/11/17 13:17:44;;;;;;;0.10;0.10;;;;;;;14.41;61.96;101845.72;7359553;19;20021;-62
2021/11/17 13:20:13;;;;;;;0.00;0.00;;;;;;;14.48;61.30;101843.84;7356783;19;20025;-62
2021/11/17 13:22:41;;;;;;;0.08;0.08;;;;;;;14.53;59.99;101832.34;7317693;19;20010;-62
2021/11/17 13:25:12;;;;;;;0.10;0.10;;;;;;;14.60;60.29;101840.97;7357750;19;20026;-63
2021/11/17 13:27:43;;;;;;;0.10;0.10;;;;;;;14.59;60.11;101844.47;7359689;19;20011;-63
2021/11/17 13:30:14;;;;;;;0.00;0.00;;;;;;;14.60;60.67;101835.72;7358037;19;20006;-62
2021/11/17 13:32:43;;;;;;;0.00;0.00;;;;;;;14.57;59.75;101832.28;7356053;19;20014;-63
2021/11/17 13:35:29;;;;;;;0.10;0.10;;;;;;;14.50;60.81;101818.41;7357735;19;20034;-63
2021/11/17 13:38:10;;;;;;;0.00;0.00;;;;;;;14.51;60.00;101833.28;7364740;19;20529;-63
2021/11/17 13:40:37;;;;;;;0.00;0.00;;;;;;;14.43;59.34;101827.28;7365178;19;20010;-63
2021/11/17 13:43:02;;;;;;;0.10;0.10;;;;;;;14.38;59.85;101821.25;7364951;19;20588;-62
2021/11/17 13:45:31;;;;;;;0.00;0.00;;;;;;;14.30;59.75;101815.31;7360741;19;20024;-63
2021/11/17 13:47:57;;;;;;;0.10;0.10;;;;;;;14.32;59.76;101810.88;7368278;19;20029;-63
2021/11/17 13:50:30;;;;;;;0.00;0.00;;;;;;;14.36;60.19;101820.44;7365777;19;20034;-61
2021/11/17 13:52:57;;;;;;;0.10;0.10;;;;;;;14.33;59.77;101820.47;7361560;19;20081;-63
2021/11/17 13:55:30;;;;;;;0.10;0.10;;;;;;;14.35;60.03;101813.44;7365624;19;20026;-60
2021/11/17 13:57:55;;;;;;;0.00;0.00;;;;;;;14.30;59.49;101807.44;7365398;19;20030;-63
2021/11/17 14:00:22;;;;;;;0.03;0.03;;;;;;;14.28;59.23;101807.44;7365726;19;20011;-63
2021/11/17 14:02:48;;;;;;;0.00;0.00;;;;;;;14.25;59.58;101810.13;7366123;19;20018;-63
2021/11/17 14:05:17;;;;;;;0.00;0.00;;;;;;;14.24;59.16;101809.28;7366255;19;20015;-63
2021/11/17 14:07:43;;;;;;;0.00;0.00;;;;;;;14.18;59.21;101806.75;7341101;19;20018;-63
2021/11/17 14:10:10;;;;;;;0.00;0.00;;;;;;;14.18;59.46;101811.13;7367037;19;20034;-62
2021/11/17 14:12:35;;;;;;;0.00;0.00;;;;;;;14.16;59.67;101821.69;7363770;19;20106;-62
2021/11/17 14:15:03;;;;;;;0.00;0.00;;;;;;;14.18;59.57;101824.28;7362819;19;20616;-62
2021/11/17 14:17:29;;;;;;;0.00;0.00;;;;;;;14.07;59.73;101808.72;7359326;19;20010;-63
2021/11/17 14:19:55;;;;;;;0.00;0.00;;;;;;;14.20;59.74;101820.75;7366948;19;20010;-63
2021/11/17 14:22:20;;;;;;;0.00;0.00;;;;;;;14.20;59.76;101820.75;7353830;19;20376;-63
2021/11/17 14:24:46;;;;;;;0.00;0.00;;;;;;;14.18;59.52;101817.25;7359194;19;20486;-63
2021/11/17 14:27:13;;;;;;;0.00;0.00;;;;;;;14.18;59.28;101833.03;7366850;19;20103;-63
2021/11/17 14:29:45;;;;;;;0.00;0.00;;;;;;;14.18;59.59;101832.16;7360570;19;20011;-62
2021/11/17 14:32:15;;;;;;;0.08;0.08;;;;;;;14.00;59.75;101812.38;7363037;19;20090;-63